createdAt,value
2019-03-31T00:00:32.119Z,6.20
2019-03-31T00:03:01.810Z,5.80
2019-03-31T00:05:31.427Z,5.40
2019-03-31T00:08:01.057Z,5.30
2019-03-31T00:10:30.748Z,5.10
2019-03-31T00:13:00.341Z,4.90
2019-03-31T00:15:29.984Z,5.00
2019-03-31T00:17:59.567Z,5.00
2019-03-31T00:20:29.274Z,5.00
2019-03-31T00:22:58.898Z,4.90
2019-03-31T00:25:28.515Z,4.80
2019-03-31T00:27:58.110Z,4.60
2019-03-31T00:30:27.725Z,4.60
2019-03-31T00:32:57.343Z,4.60
2019-03-31T00:35:26.949Z,4.50
2019-03-31T00:37:56.535Z,4.30
2019-03-31T00:40:26.223Z,4.10
2019-03-31T00:42:55.813Z,4.10
2019-03-31T00:45:25.428Z,4.10
2019-03-31T00:47:55.045Z,4.00
2019-03-31T00:50:24.694Z,4.00
2019-03-31T00:52:54.273Z,4.00
2019-03-31T00:55:24.000Z,4.10
2019-03-31T00:57:53.586Z,4.20
2019-03-31T01:00:41.837Z,4.10
2019-03-31T01:03:11.866Z,3.90
2019-03-31T01:05:44.298Z,3.90
2019-03-31T01:08:14.765Z,3.70
2019-03-31T01:10:44.668Z,3.70
2019-03-31T01:13:14.827Z,3.80
2019-03-31T01:15:44.781Z,3.80
2019-03-31T01:18:14.535Z,3.90
2019-03-31T01:20:44.465Z,3.80
2019-03-31T01:23:14.082Z,3.70
2019-03-31T01:25:43.773Z,3.70
2019-03-31T01:28:13.381Z,3.70
2019-03-31T01:30:43.133Z,3.70
2019-03-31T01:33:12.991Z,3.70
2019-03-31T01:35:44.227Z,3.80
2019-03-31T01:38:14.159Z,3.80
2019-03-31T01:40:43.962Z,3.90
2019-03-31T01:43:13.650Z,3.90
2019-03-31T01:45:43.373Z,3.90
2019-03-31T01:48:12.971Z,3.90
2019-03-31T01:50:42.902Z,3.90
2019-03-31T01:53:12.493Z,3.80
2019-03-31T01:55:42.174Z,3.70
2019-03-31T01:58:11.940Z,3.50
2019-03-31T02:00:45.943Z,3.30
2019-03-31T02:03:15.538Z,3.20
2019-03-31T02:05:45.197Z,3.20
2019-03-31T02:08:14.891Z,3.30
2019-03-31T02:10:44.468Z,3.40
2019-03-31T02:13:14.161Z,3.40
2019-03-31T02:15:44.357Z,3.40
2019-03-31T02:18:14.023Z,3.40
2019-03-31T02:20:43.715Z,3.40
2019-03-31T02:23:13.302Z,3.20
2019-03-31T02:25:42.919Z,3.10
2019-03-31T02:28:12.548Z,3.10
2019-03-31T02:30:42.141Z,3.00
2019-03-31T02:33:11.776Z,3.00
2019-03-31T02:35:41.537Z,2.90
2019-03-31T02:38:11.150Z,2.80
2019-03-31T02:40:40.745Z,2.80
2019-03-31T02:43:10.425Z,2.80
2019-03-31T02:45:40.015Z,3.00
2019-03-31T02:48:09.633Z,3.00
2019-03-31T02:50:51.665Z,3.00
2019-03-31T02:53:21.664Z,3.10
2019-03-31T02:55:53.666Z,3.10
2019-03-31T02:58:23.428Z,3.20
2019-03-31T03:00:54.151Z,3.30
2019-03-31T03:03:23.941Z,3.40
2019-03-31T03:05:56.599Z,3.60
2019-03-31T03:08:31.126Z,3.70
2019-03-31T03:11:03.970Z,3.70
2019-03-31T03:13:35.678Z,3.50
2019-03-31T03:16:09.855Z,3.30
2019-03-31T03:18:39.478Z,3.20
2019-03-31T03:21:09.196Z,3.10
2019-03-31T03:23:38.767Z,3.10
2019-03-31T03:26:08.386Z,3.00
2019-03-31T03:28:37.977Z,2.90
2019-03-31T03:31:14.541Z,2.90
2019-03-31T03:33:38.993Z,2.80
2019-03-31T03:36:08.604Z,2.80
2019-03-31T03:38:38.197Z,2.70
2019-03-31T03:41:07.815Z,2.70
2019-03-31T03:43:53.997Z,2.70
2019-03-31T03:46:09.085Z,2.70
2019-03-31T03:48:38.694Z,2.50
2019-03-31T03:51:08.311Z,2.30
2019-03-31T03:53:37.926Z,2.10
2019-03-31T03:56:07.558Z,2.10
2019-03-31T03:58:37.142Z,2.20
2019-03-31T04:01:08.573Z,2.20
2019-03-31T04:03:38.155Z,2.40
2019-03-31T04:06:07.848Z,2.50
2019-03-31T04:08:37.439Z,2.50
2019-03-31T04:11:20.791Z,2.30
2019-03-31T04:13:48.058Z,2.20
2019-03-31T04:16:17.674Z,2.20
2019-03-31T04:18:47.344Z,2.30
2019-03-31T04:21:17.029Z,2.20
2019-03-31T04:23:46.653Z,2.20
2019-03-31T04:26:16.409Z,2.30
2019-03-31T04:28:45.986Z,2.40
2019-03-31T04:31:15.929Z,2.40
2019-03-31T04:33:51.678Z,2.50
2019-03-31T04:36:17.027Z,2.50
2019-03-31T04:38:46.708Z,2.40
2019-03-31T04:41:16.442Z,2.30
2019-03-31T04:43:46.060Z,2.20
2019-03-31T04:46:15.679Z,2.00
2019-03-31T04:48:45.530Z,1.90
2019-03-31T04:51:15.287Z,1.80
2019-03-31T04:53:44.882Z,1.90
2019-03-31T04:56:14.502Z,2.00
2019-03-31T04:58:44.090Z,2.00
2019-03-31T05:01:13.759Z,2.10
2019-03-31T05:03:43.365Z,2.30
2019-03-31T05:06:13.023Z,2.20
2019-03-31T05:08:42.684Z,2.10
2019-03-31T05:11:12.301Z,2.10
2019-03-31T05:13:41.995Z,2.10
2019-03-31T05:16:11.617Z,2.30
2019-03-31T05:18:41.310Z,2.40
2019-03-31T05:21:11.667Z,2.50
2019-03-31T05:23:41.285Z,2.50
2019-03-31T05:26:10.874Z,2.50
2019-03-31T05:28:43.963Z,2.60
2019-03-31T05:31:11.893Z,2.70
2019-03-31T05:33:41.521Z,2.90
2019-03-31T05:36:11.114Z,3.00
2019-03-31T05:38:40.733Z,3.00
2019-03-31T05:41:10.322Z,3.00
2019-03-31T05:43:39.944Z,2.90
2019-03-31T05:46:09.530Z,2.90
2019-03-31T05:48:39.141Z,3.10
2019-03-31T05:51:08.760Z,3.50
2019-03-31T05:53:38.356Z,3.90
2019-03-31T05:56:07.970Z,4.20
2019-03-31T05:58:37.565Z,4.50
2019-03-31T06:01:07.175Z,4.70
2019-03-31T06:03:36.767Z,5.00
2019-03-31T06:06:06.410Z,5.20
2019-03-31T06:08:36.000Z,5.40
2019-03-31T06:11:05.702Z,5.50
2019-03-31T06:13:35.295Z,5.60
2019-03-31T06:16:04.917Z,5.70
2019-03-31T06:18:34.540Z,5.90
2019-03-31T06:21:04.135Z,6.10
2019-03-31T06:23:33.754Z,6.30
2019-03-31T06:26:03.488Z,6.50
2019-03-31T06:28:33.198Z,6.70
2019-03-31T06:31:02.903Z,7.10
2019-03-31T06:33:32.599Z,7.30
2019-03-31T06:36:02.211Z,7.60
2019-03-31T06:38:31.802Z,8.00
2019-03-31T06:41:01.506Z,8.30
2019-03-31T06:43:31.122Z,8.60
2019-03-31T06:46:00.718Z,8.80
2019-03-31T06:48:30.340Z,8.80
2019-03-31T06:50:59.935Z,8.90
2019-03-31T06:53:29.585Z,9.10
2019-03-31T06:55:59.185Z,9.20
2019-03-31T06:58:28.798Z,9.30
2019-03-31T07:00:58.414Z,9.40
2019-03-31T07:03:28.111Z,9.40
2019-03-31T07:05:57.722Z,9.60
2019-03-31T07:08:27.428Z,9.70
2019-03-31T07:10:57.030Z,9.90
2019-03-31T07:13:26.655Z,10.20
2019-03-31T07:15:56.256Z,10.50
2019-03-31T07:18:25.859Z,10.70
2019-03-31T07:20:55.482Z,10.90
2019-03-31T07:23:25.103Z,11.20
2019-03-31T07:25:54.731Z,11.40
2019-03-31T07:28:24.364Z,11.60
2019-03-31T07:30:53.968Z,11.90
2019-03-31T07:33:23.590Z,12.20
2019-03-31T07:35:53.191Z,12.70
2019-03-31T07:38:22.811Z,12.90
2019-03-31T07:40:52.567Z,13.20
2019-03-31T07:43:22.313Z,13.40
2019-03-31T07:45:51.940Z,13.50
2019-03-31T07:48:21.536Z,13.60
2019-03-31T07:50:51.174Z,13.80
2019-03-31T07:53:20.779Z,13.90
2019-03-31T07:55:50.406Z,14.20
2019-03-31T07:58:20.000Z,14.40
2019-03-31T08:00:49.710Z,14.50
2019-03-31T08:03:19.307Z,14.70
2019-03-31T08:05:48.908Z,14.90
2019-03-31T08:08:18.538Z,15.10
2019-03-31T08:10:48.169Z,15.30
2019-03-31T08:13:17.770Z,15.50
2019-03-31T08:15:47.397Z,15.70
2019-03-31T08:18:16.995Z,15.80
2019-03-31T08:20:46.631Z,16.00
2019-03-31T08:23:16.226Z,16.10
2019-03-31T08:25:45.851Z,16.30
2019-03-31T08:28:15.476Z,16.40
2019-03-31T08:30:45.075Z,16.40
2019-03-31T08:33:14.702Z,16.50
2019-03-31T08:35:47.759Z,16.60
2019-03-31T08:38:15.671Z,16.60
2019-03-31T08:40:45.268Z,16.70
2019-03-31T08:43:14.898Z,16.80
2019-03-31T08:45:44.503Z,16.90
2019-03-31T08:48:14.135Z,17.10
2019-03-31T08:50:43.738Z,17.20
2019-03-31T08:53:13.358Z,17.20
2019-03-31T08:55:43.005Z,17.20
2019-03-31T08:58:12.605Z,17.30
2019-03-31T09:00:43.921Z,17.40
2019-03-31T09:03:22.280Z,17.40
2019-03-31T09:06:01.535Z,17.60
2019-03-31T09:08:23.304Z,17.60
2019-03-31T09:10:53.502Z,17.60
2019-03-31T09:13:23.159Z,17.70
2019-03-31T09:15:52.823Z,17.70
2019-03-31T09:18:22.427Z,17.80
2019-03-31T09:20:52.029Z,17.80
2019-03-31T09:23:21.661Z,17.90
2019-03-31T09:25:51.261Z,18.10
2019-03-31T09:28:20.895Z,18.30
2019-03-31T09:30:50.675Z,18.40
2019-03-31T09:33:20.293Z,18.40
2019-03-31T09:35:49.893Z,18.40
2019-03-31T09:38:19.549Z,18.40
2019-03-31T09:40:49.156Z,18.40
2019-03-31T09:43:18.790Z,18.50
2019-03-31T09:45:48.397Z,18.50
2019-03-31T09:48:18.025Z,18.40
2019-03-31T09:50:47.639Z,18.40
2019-03-31T09:53:17.272Z,18.50
2019-03-31T09:55:46.896Z,18.50
2019-03-31T09:58:16.503Z,18.50
2019-03-31T10:00:51.796Z,18.70
2019-03-31T10:03:23.335Z,18.80
2019-03-31T10:05:53.072Z,18.70
2019-03-31T10:08:22.720Z,18.60
2019-03-31T10:10:52.325Z,18.70
2019-03-31T10:13:21.919Z,19.00
2019-03-31T10:15:51.545Z,19.10
2019-03-31T10:18:21.146Z,19.20
2019-03-31T10:20:50.776Z,19.00
2019-03-31T10:23:20.373Z,18.90
2019-03-31T10:25:50.006Z,18.80
2019-03-31T10:28:19.615Z,18.80
2019-03-31T10:30:49.246Z,18.90
2019-03-31T10:33:18.852Z,19.00
2019-03-31T10:35:48.488Z,19.20
2019-03-31T10:38:18.119Z,19.30
2019-03-31T10:40:47.716Z,19.10
2019-03-31T10:43:17.348Z,18.90
2019-03-31T10:45:46.957Z,18.80
2019-03-31T10:48:20.940Z,18.60
2019-03-31T10:50:47.924Z,18.80
2019-03-31T10:53:17.620Z,19.00
2019-03-31T10:55:47.320Z,19.10
2019-03-31T10:58:16.944Z,19.10
2019-03-31T11:00:46.564Z,19.00
2019-03-31T11:03:16.241Z,18.80
2019-03-31T11:05:45.865Z,18.90
2019-03-31T11:08:15.570Z,19.00
2019-03-31T11:10:45.172Z,19.10
2019-03-31T11:13:14.788Z,19.10
2019-03-31T11:15:44.396Z,19.10
2019-03-31T11:18:14.020Z,19.10
2019-03-31T11:20:43.664Z,19.20
2019-03-31T11:23:17.541Z,19.30
2019-03-31T11:25:47.276Z,19.20
2019-03-31T11:28:16.896Z,19.40
2019-03-31T11:30:46.553Z,19.50
2019-03-31T11:33:16.222Z,19.40
2019-03-31T11:35:45.901Z,19.40
2019-03-31T11:38:15.530Z,19.40
2019-03-31T11:40:45.129Z,19.50
2019-03-31T11:43:14.761Z,19.60
2019-03-31T11:45:44.451Z,19.40
2019-03-31T11:48:14.074Z,19.40
2019-03-31T11:50:43.745Z,19.40
2019-03-31T11:53:13.384Z,19.40
2019-03-31T11:55:42.991Z,19.60
2019-03-31T11:58:12.622Z,19.50
2019-03-31T12:00:43.934Z,19.40
2019-03-31T12:03:13.569Z,19.50
2019-03-31T12:05:43.200Z,19.60
2019-03-31T12:08:12.869Z,19.40
2019-03-31T12:10:42.497Z,19.30
2019-03-31T12:13:12.107Z,19.40
2019-03-31T12:15:41.740Z,19.40
2019-03-31T12:18:11.360Z,19.40
2019-03-31T12:20:40.962Z,19.40
2019-03-31T12:23:14.409Z,19.50
2019-03-31T12:25:44.014Z,19.50
2019-03-31T12:28:13.641Z,19.60
2019-03-31T12:30:43.338Z,19.60
2019-03-31T12:33:12.945Z,19.60
2019-03-31T12:35:42.717Z,19.60
2019-03-31T12:38:12.371Z,19.60
2019-03-31T12:40:41.955Z,19.50
2019-03-31T12:43:11.584Z,19.50
2019-03-31T12:45:43.081Z,19.60
2019-03-31T12:48:12.615Z,19.60
2019-03-31T12:50:42.346Z,19.60
2019-03-31T12:53:12.392Z,19.50
2019-03-31T12:55:42.549Z,19.40
2019-03-31T12:58:12.145Z,19.40
2019-03-31T13:00:42.843Z,19.50
2019-03-31T13:03:15.845Z,19.50
2019-03-31T13:05:43.986Z,19.50
2019-03-31T13:08:13.587Z,19.40
2019-03-31T13:10:43.280Z,19.30
2019-03-31T13:13:12.910Z,19.30
2019-03-31T13:15:42.508Z,19.30
2019-03-31T13:18:12.139Z,19.40
2019-03-31T13:20:41.914Z,19.30
2019-03-31T13:23:11.610Z,19.30
2019-03-31T13:25:41.233Z,19.40
2019-03-31T13:28:10.836Z,19.50
2019-03-31T13:30:40.487Z,19.50
2019-03-31T13:33:11.442Z,19.60
2019-03-31T13:35:41.079Z,19.80
2019-03-31T13:38:11.714Z,19.80
2019-03-31T13:40:41.487Z,19.60
2019-03-31T13:43:11.177Z,19.50
2019-03-31T13:45:40.859Z,19.50
2019-03-31T13:48:10.491Z,19.50
2019-03-31T13:50:40.105Z,19.60
2019-03-31T13:53:09.727Z,19.60
2019-03-31T13:55:39.389Z,19.50
2019-03-31T13:58:10.302Z,19.40
2019-03-31T14:00:42.052Z,19.40
2019-03-31T14:03:11.825Z,19.50
2019-03-31T14:05:41.455Z,19.50
2019-03-31T14:08:24.641Z,19.50
2019-03-31T14:10:42.481Z,19.40
2019-03-31T14:13:12.081Z,19.40
2019-03-31T14:15:41.799Z,19.30
2019-03-31T14:18:11.681Z,19.40
2019-03-31T14:20:41.499Z,19.30
2019-03-31T14:23:11.101Z,19.30
2019-03-31T14:25:40.723Z,19.40
2019-03-31T14:28:10.329Z,19.40
2019-03-31T14:30:40.030Z,19.50
2019-03-31T14:33:09.629Z,19.50
2019-03-31T14:35:39.318Z,19.60
2019-03-31T14:38:08.921Z,19.50
2019-03-31T14:40:38.586Z,19.40
2019-03-31T14:43:08.319Z,19.50
2019-03-31T14:45:38.376Z,19.40
2019-03-31T14:48:08.158Z,19.40
2019-03-31T14:50:39.462Z,19.40
2019-03-31T14:53:09.145Z,19.40
2019-03-31T14:55:39.176Z,19.30
2019-03-31T14:58:09.470Z,19.30
2019-03-31T15:00:39.072Z,19.40
2019-03-31T15:03:08.762Z,19.50
2019-03-31T15:05:38.387Z,19.40
2019-03-31T15:08:08.152Z,19.50
2019-03-31T15:10:37.753Z,19.60
2019-03-31T15:13:07.371Z,19.60
2019-03-31T15:15:36.976Z,19.50
2019-03-31T15:18:06.738Z,19.50
2019-03-31T15:20:36.369Z,19.40
2019-03-31T15:23:06.031Z,19.30
2019-03-31T15:25:35.657Z,19.30
2019-03-31T15:28:05.426Z,19.40
2019-03-31T15:30:35.133Z,19.20
2019-03-31T15:33:04.797Z,19.30
2019-03-31T15:35:37.466Z,19.20
2019-03-31T15:38:05.813Z,19.20
2019-03-31T15:40:35.508Z,19.20
2019-03-31T15:43:05.107Z,19.20
2019-03-31T15:45:34.807Z,19.20
2019-03-31T15:48:04.675Z,19.20
2019-03-31T15:50:34.244Z,19.30
2019-03-31T15:53:03.940Z,19.20
2019-03-31T15:55:33.542Z,19.10
2019-03-31T15:58:05.294Z,19.00
2019-03-31T16:00:34.565Z,18.80
2019-03-31T16:03:04.193Z,18.80
2019-03-31T16:05:33.884Z,18.80
2019-03-31T16:08:03.513Z,18.70
2019-03-31T16:10:33.176Z,18.80
2019-03-31T16:13:02.874Z,18.80
2019-03-31T16:15:32.643Z,18.80
2019-03-31T16:18:02.244Z,18.80
2019-03-31T16:20:31.937Z,18.80
2019-03-31T16:23:01.566Z,18.70
2019-03-31T16:25:35.791Z,18.70
2019-03-31T16:28:05.427Z,18.70
2019-03-31T16:30:36.191Z,18.60
2019-03-31T16:33:07.264Z,18.50
2019-03-31T16:35:37.294Z,18.60
2019-03-31T16:38:06.892Z,18.50
2019-03-31T16:40:36.518Z,18.50
2019-03-31T16:43:06.141Z,18.40
2019-03-31T16:45:35.768Z,18.30
2019-03-31T16:48:05.442Z,18.20
2019-03-31T16:50:35.164Z,18.10
2019-03-31T16:53:04.760Z,17.90
2019-03-31T16:55:34.480Z,17.70
2019-03-31T16:58:04.141Z,17.60
2019-03-31T17:00:33.838Z,17.40
2019-03-31T17:03:03.438Z,17.20
2019-03-31T17:05:33.135Z,17.00
2019-03-31T17:08:02.735Z,16.70
2019-03-31T17:10:32.364Z,16.50
2019-03-31T17:13:01.966Z,16.30
2019-03-31T17:15:31.647Z,16.10
2019-03-31T17:18:01.248Z,15.80
2019-03-31T17:20:30.878Z,15.70
2019-03-31T17:23:00.479Z,15.70
2019-03-31T17:25:30.103Z,15.70
2019-03-31T17:27:59.706Z,15.60
2019-03-31T17:30:29.392Z,15.40
2019-03-31T17:32:58.990Z,15.10
2019-03-31T17:35:28.615Z,14.90
2019-03-31T17:37:58.253Z,14.80
2019-03-31T17:40:27.930Z,14.80
2019-03-31T17:42:58.097Z,14.70
2019-03-31T17:45:27.731Z,14.60
2019-03-31T17:47:57.356Z,14.40
2019-03-31T17:50:26.960Z,14.20
2019-03-31T17:52:56.673Z,14.00
2019-03-31T17:55:26.307Z,13.90
2019-03-31T17:57:55.913Z,13.90
2019-03-31T18:00:26.344Z,13.80
2019-03-31T18:02:55.973Z,13.80
2019-03-31T18:05:25.601Z,13.80
2019-03-31T18:07:55.202Z,13.80
2019-03-31T18:10:24.830Z,13.70
2019-03-31T18:12:54.442Z,13.60
2019-03-31T18:15:24.175Z,13.50
2019-03-31T18:17:53.859Z,13.40
2019-03-31T18:20:23.471Z,13.20
2019-03-31T18:22:53.108Z,12.90
2019-03-31T18:25:22.723Z,12.70
2019-03-31T18:27:52.320Z,12.30
2019-03-31T18:30:22.528Z,12.30
2019-03-31T18:32:52.166Z,12.30
2019-03-31T18:35:21.803Z,12.40
2019-03-31T18:37:51.411Z,12.50
2019-03-31T18:40:34.266Z,12.60
2019-03-31T18:42:52.528Z,12.70
2019-03-31T18:45:22.129Z,12.60
2019-03-31T18:47:51.774Z,12.60
2019-03-31T18:50:21.374Z,12.60
2019-03-31T18:52:51.007Z,12.60
2019-03-31T18:55:29.333Z,12.50
2019-03-31T18:58:16.927Z,12.40
2019-03-31T19:00:50.879Z,12.40
2019-03-31T19:03:38.572Z,12.30
2019-03-31T19:06:15.616Z,12.30
2019-03-31T19:09:01.933Z,12.20
2019-03-31T19:11:49.583Z,12.20
2019-03-31T19:14:20.951Z,12.20
2019-03-31T19:16:52.368Z,12.20
2019-03-31T19:19:24.679Z,12.20
2019-03-31T19:22:01.627Z,12.20
2019-03-31T19:24:38.850Z,12.10
2019-03-31T19:27:26.094Z,12.00
2019-03-31T19:30:15.719Z,12.10
2019-03-31T19:32:46.729Z,12.00
2019-03-31T19:35:26.881Z,11.60
2019-03-31T19:37:58.115Z,11.50
2019-03-31T19:40:32.151Z,11.30
2019-03-31T19:43:15.640Z,11.50
2019-03-31T19:45:45.030Z,11.60
2019-03-31T19:48:22.138Z,11.80
2019-03-31T19:50:53.422Z,11.90
2019-03-31T19:53:40.475Z,11.90
2019-03-31T19:56:15.433Z,11.70
2019-03-31T19:58:44.823Z,11.60
2019-03-31T20:01:24.924Z,11.40
2019-03-31T20:04:12.489Z,11.50
2019-03-31T20:07:01.944Z,11.40
2019-03-31T20:09:49.420Z,11.30
2019-03-31T20:12:20.689Z,11.10
2019-03-31T20:15:06.849Z,10.90
2019-03-31T20:17:38.112Z,10.80
2019-03-31T20:20:10.623Z,10.80
2019-03-31T20:22:41.886Z,10.90
2019-03-31T20:25:14.255Z,10.80
2019-03-31T20:27:51.305Z,10.80
2019-03-31T20:30:28.365Z,11.00
2019-03-31T20:33:02.182Z,10.90
2019-03-31T20:35:45.682Z,10.90
2019-03-31T20:38:19.736Z,10.90
2019-03-31T20:40:51.940Z,10.80
2019-03-31T20:43:23.201Z,10.70
2019-03-31T20:45:52.796Z,10.70
2019-03-31T20:48:22.413Z,10.70
2019-03-31T20:50:52.143Z,10.60
2019-03-31T20:53:21.848Z,10.60
2019-03-31T20:55:51.445Z,10.60
2019-03-31T20:58:21.173Z,10.60
2019-03-31T21:00:50.790Z,10.60
2019-03-31T21:03:20.448Z,10.70
2019-03-31T21:05:50.116Z,10.70
2019-03-31T21:08:19.747Z,10.70
2019-03-31T21:10:49.393Z,10.80
2019-03-31T21:13:18.990Z,10.80
2019-03-31T21:15:48.725Z,10.80
2019-03-31T21:18:18.329Z,10.80
2019-03-31T21:20:47.955Z,10.60
2019-03-31T21:23:17.551Z,10.60
2019-03-31T21:25:47.175Z,10.50
2019-03-31T21:28:16.772Z,10.40
2019-03-31T21:30:46.468Z,10.40
2019-03-31T21:33:16.094Z,10.60
2019-03-31T21:35:48.484Z,10.60
2019-03-31T21:38:17.116Z,10.70
2019-03-31T21:40:46.825Z,10.80
2019-03-31T21:43:16.442Z,10.90
2019-03-31T21:45:47.082Z,10.80
2019-03-31T21:48:16.805Z,10.70
2019-03-31T21:50:46.405Z,10.50
2019-03-31T21:53:16.025Z,10.30
2019-03-31T21:55:45.646Z,10.20
2019-03-31T21:58:15.323Z,10.10
2019-03-31T22:00:56.007Z,10.10
2019-03-31T22:03:25.839Z,9.90
2019-03-31T22:05:55.434Z,10.00
2019-03-31T22:08:25.052Z,10.00
2019-03-31T22:10:55.117Z,9.90
2019-03-31T22:13:24.736Z,9.80
2019-03-31T22:15:54.356Z,9.80
2019-03-31T22:18:24.482Z,9.80
2019-03-31T22:20:54.178Z,9.70
2019-03-31T22:23:23.840Z,9.60
2019-03-31T22:25:53.499Z,9.40
2019-03-31T22:28:23.116Z,9.40
2019-03-31T22:30:53.279Z,9.30
2019-03-31T22:33:22.906Z,9.20
2019-03-31T22:36:10.445Z,9.10
2019-03-31T22:38:40.049Z,8.90
2019-03-31T22:41:09.643Z,8.80
2019-03-31T22:43:39.262Z,8.70
2019-03-31T22:46:08.849Z,8.50
2019-03-31T22:48:38.465Z,8.40
2019-03-31T22:51:08.110Z,8.30
2019-03-31T22:53:37.946Z,8.20
2019-03-31T22:56:07.626Z,8.20
2019-03-31T22:58:37.213Z,8.20
2019-03-31T23:01:06.973Z,8.30
2019-03-31T23:03:36.736Z,8.20
2019-03-31T23:06:06.395Z,8.20
2019-03-31T23:08:36.001Z,8.10
2019-03-31T23:11:05.866Z,8.10
2019-03-31T23:13:35.454Z,8.00
2019-03-31T23:16:05.118Z,7.90
2019-03-31T23:18:34.807Z,7.90
2019-03-31T23:21:04.475Z,7.80
2019-03-31T23:23:34.105Z,7.60
2019-03-31T23:26:03.764Z,7.50
2019-03-31T23:28:33.350Z,7.50
2019-03-31T23:31:03.822Z,7.50
2019-03-31T23:33:33.557Z,7.50
2019-03-31T23:36:03.174Z,7.50
2019-03-31T23:38:32.893Z,7.40
2019-03-31T23:41:02.484Z,7.20
2019-03-31T23:43:32.099Z,7.20
2019-03-31T23:46:01.780Z,7.30
2019-03-31T23:48:31.403Z,7.20
2019-03-31T23:51:00.991Z,7.10
2019-03-31T23:53:30.604Z,7.00
2019-03-31T23:56:00.221Z,6.90
2019-03-31T23:58:29.877Z,6.90
